Terminal Aerodrome Forecast
Issued by NWS

Home | Current Version | Previous Version | Text Only | Print | Product List | Glossary On
Versions: 1 2 3 4 5 6 7 8 9 10 11 12 13 14 15 16 17 18 19 20 21 22 23 24 25 26 27
000
FTUS41 KBGM 300527
TAFRME
TAF
KRME 300527Z 3006/0106 11004KT P6SM OVC100
     FM301300 12008KT P6SM -SHRA OVC040 PROB30 3021/0101 6SM -TSRA
      OVC040CB
     FM010400 18007KT P6SM OVC100=

USA.gov is the U.S. government's official web portal to all federal, state and local government web resources and services.